sensor_id;sensor_type;location;lat;lon;timestamp;P1;durP1;ratioP1;P2;durP2;ratioP2
61915;SDS011;47868;51.326;6.550;2023-06-14T00:00:19;10.05;;;7.22;;
61915;SDS011;47868;51.326;6.550;2023-06-14T00:02:45;12.73;;;7.28;;
61915;SDS011;47868;51.326;6.550;2023-06-14T00:05:12;8.88;;;7.00;;
61915;SDS011;47868;51.326;6.550;2023-06-14T00:07:39;8.40;;;6.82;;
61915;SDS011;47868;51.326;6.550;2023-06-14T00:10:09;10.27;;;7.10;;
61915;SDS011;47868;51.326;6.550;2023-06-14T00:12:35;9.80;;;6.80;;
61915;SDS011;47868;51.326;6.550;2023-06-14T00:15:02;8.02;;;6.53;;
61915;SDS011;47868;51.326;6.550;2023-06-14T00:17:28;8.77;;;7.18;;
61915;SDS011;47868;51.326;6.550;2023-06-14T00:19:58;9.13;;;6.95;;
61915;SDS011;47868;51.326;6.550;2023-06-14T00:22:24;9.70;;;6.95;;
61915;SDS011;47868;51.326;6.550;2023-06-14T00:24:51;13.40;;;7.07;;
61915;SDS011;47868;51.326;6.550;2023-06-14T00:27:17;10.27;;;6.80;;
61915;SDS011;47868;51.326;6.550;2023-06-14T00:29:43;12.68;;;7.22;;
61915;SDS011;47868;51.326;6.550;2023-06-14T00:32:10;7.47;;;6.63;;
61915;SDS011;47868;51.326;6.550;2023-06-14T00:34:36;10.90;;;7.13;;
61915;SDS011;47868;51.326;6.550;2023-06-14T00:37:02;9.00;;;6.68;;
61915;SDS011;47868;51.326;6.550;2023-06-14T00:39:28;8.70;;;7.18;;
61915;SDS011;47868;51.326;6.550;2023-06-14T00:41:54;7.63;;;6.82;;
61915;SDS011;47868;51.326;6.550;2023-06-14T00:44:20;11.95;;;7.22;;
61915;SDS011;47868;51.326;6.550;2023-06-14T00:46:46;7.70;;;6.90;;
61915;SDS011;47868;51.326;6.550;2023-06-14T00:49:15;9.43;;;7.47;;
61915;SDS011;47868;51.326;6.550;2023-06-14T00:51:43;11.60;;;6.72;;
61915;SDS011;47868;51.326;6.550;2023-06-14T00:54:09;8.48;;;7.03;;
61915;SDS011;47868;51.326;6.550;2023-06-14T00:56:35;9.63;;;6.53;;
61915;SDS011;47868;51.326;6.550;2023-06-14T00:59:02;11.15;;;7.13;;
61915;SDS011;47868;51.326;6.550;2023-06-14T01:01:28;8.77;;;6.72;;
61915;SDS011;47868;51.326;6.550;2023-06-14T01:03:57;9.15;;;6.63;;
61915;SDS011;47868;51.326;6.550;2023-06-14T01:06:27;12.82;;;6.80;;
61915;SDS011;47868;51.326;6.550;2023-06-14T01:09:01;12.80;;;6.80;;
61915;SDS011;47868;51.326;6.550;2023-06-14T01:11:32;9.95;;;6.65;;
61915;SDS011;47868;51.326;6.550;2023-06-14T01:14:03;11.02;;;6.68;;
61915;SDS011;47868;51.326;6.550;2023-06-14T01:16:30;8.10;;;6.40;;
61915;SDS011;47868;51.326;6.550;2023-06-14T01:19:01;11.13;;;6.70;;
61915;SDS011;47868;51.326;6.550;2023-06-14T01:21:27;7.78;;;6.93;;
61915;SDS011;47868;51.326;6.550;2023-06-14T01:23:54;11.60;;;7.32;;
61915;SDS011;47868;51.326;6.550;2023-06-14T01:26:20;7.63;;;6.60;;
61915;SDS011;47868;51.326;6.550;2023-06-14T01:28:47;14.00;;;6.60;;
61915;SDS011;47868;51.326;6.550;2023-06-14T01:31:17;16.33;;;6.85;;
61915;SDS011;47868;51.326;6.550;2023-06-14T01:33:43;7.32;;;6.63;;
61915;SDS011;47868;51.326;6.550;2023-06-14T01:36:09;10.45;;;7.05;;
61915;SDS011;47868;51.326;6.550;2023-06-14T01:38:36;8.82;;;5.95;;
61915;SDS011;47868;51.326;6.550;2023-06-14T01:41:02;12.48;;;6.93;;
61915;SDS011;47868;51.326;6.550;2023-06-14T01:43:29;7.30;;;6.60;;
61915;SDS011;47868;51.326;6.550;2023-06-14T01:45:56;11.25;;;7.20;;
61915;SDS011;47868;51.326;6.550;2023-06-14T01:48:23;9.20;;;6.70;;
61915;SDS011;47868;51.326;6.550;2023-06-14T01:50:49;10.30;;;6.07;;
61915;SDS011;47868;51.326;6.550;2023-06-14T01:53:15;6.70;;;6.00;;
61915;SDS011;47868;51.326;6.550;2023-06-14T01:55:42;8.05;;;6.07;;
61915;SDS011;47868;51.326;6.550;2023-06-14T01:58:09;8.75;;;6.45;;
61915;SDS011;47868;51.326;6.550;2023-06-14T02:00:35;10.60;;;6.80;;
61915;SDS011;47868;51.326;6.550;2023-06-14T02:03:01;8.32;;;6.30;;
61915;SDS011;47868;51.326;6.550;2023-06-14T02:05:29;13.80;;;6.63;;
61915;SDS011;47868;51.326;6.550;2023-06-14T02:07:55;15.50;;;7.15;;
61915;SDS011;47868;51.326;6.550;2023-06-14T02:10:22;8.25;;;6.93;;
61915;SDS011;47868;51.326;6.550;2023-06-14T02:12:48;8.68;;;7.22;;
61915;SDS011;47868;51.326;6.550;2023-06-14T02:15:15;7.82;;;7.00;;
61915;SDS011;47868;51.326;6.550;2023-06-14T02:17:44;13.60;;;7.80;;
61915;SDS011;47868;51.326;6.550;2023-06-14T02:20:12;13.18;;;7.35;;
61915;SDS011;47868;51.326;6.550;2023-06-14T02:22:38;9.20;;;6.70;;
61915;SDS011;47868;51.326;6.550;2023-06-14T02:25:04;9.05;;;6.43;;
61915;SDS011;47868;51.326;6.550;2023-06-14T02:27:31;7.20;;;6.50;;
61915;SDS011;47868;51.326;6.550;2023-06-14T02:29:57;9.23;;;6.43;;
61915;SDS011;47868;51.326;6.550;2023-06-14T02:32:23;14.07;;;6.53;;
61915;SDS011;47868;51.326;6.550;2023-06-14T02:34:51;8.85;;;6.60;;
61915;SDS011;47868;51.326;6.550;2023-06-14T02:37:18;10.15;;;6.53;;
61915;SDS011;47868;51.326;6.550;2023-06-14T02:39:44;14.07;;;6.50;;
61915;SDS011;47868;51.326;6.550;2023-06-14T02:42:10;7.88;;;5.90;;
61915;SDS011;47868;51.326;6.550;2023-06-14T02:44:37;8.38;;;6.10;;
61915;SDS011;47868;51.326;6.550;2023-06-14T02:47:03;10.10;;;6.40;;
61915;SDS011;47868;51.326;6.550;2023-06-14T02:49:29;8.82;;;6.63;;
61915;SDS011;47868;51.326;6.550;2023-06-14T02:51:56;8.13;;;5.93;;
61915;SDS011;47868;51.326;6.550;2023-06-14T02:54:22;9.00;;;5.80;;
61915;SDS011;47868;51.326;6.550;2023-06-14T02:56:48;11.77;;;5.78;;
61915;SDS011;47868;51.326;6.550;2023-06-14T02:59:15;7.70;;;5.90;;
61915;SDS011;47868;51.326;6.550;2023-06-14T03:01:42;7.13;;;6.03;;
61915;SDS011;47868;51.326;6.550;2023-06-14T03:04:08;11.68;;;6.10;;
61915;SDS011;47868;51.326;6.550;2023-06-14T03:06:34;10.93;;;6.07;;
61915;SDS011;47868;51.326;6.550;2023-06-14T03:09:01;10.50;;;6.57;;
61915;SDS011;47868;51.326;6.550;2023-06-14T03:11:29;9.32;;;6.07;;
61915;SDS011;47868;51.326;6.550;2023-06-14T03:13:55;13.07;;;6.20;;
61915;SDS011;47868;51.326;6.550;2023-06-14T03:16:22;8.27;;;5.80;;
61915;SDS011;47868;51.326;6.550;2023-06-14T03:18:49;7.07;;;6.10;;
61915;SDS011;47868;51.326;6.550;2023-06-14T03:21:15;6.47;;;5.68;;
61915;SDS011;47868;51.326;6.550;2023-06-14T03:23:42;10.02;;;5.57;;
61915;SDS011;47868;51.326;6.550;2023-06-14T03:26:08;9.57;;;5.53;;
61915;SDS011;47868;51.326;6.550;2023-06-14T03:28:34;10.07;;;6.03;;
61915;SDS011;47868;51.326;6.550;2023-06-14T03:31:00;8.48;;;5.90;;
61915;SDS011;47868;51.326;6.550;2023-06-14T03:33:26;6.53;;;5.82;;
61915;SDS011;47868;51.326;6.550;2023-06-14T03:35:52;6.55;;;5.75;;
61915;SDS011;47868;51.326;6.550;2023-06-14T03:38:18;9.05;;;5.80;;
61915;SDS011;47868;51.326;6.550;2023-06-14T03:40:45;9.35;;;5.72;;
61915;SDS011;47868;51.326;6.550;2023-06-14T03:43:11;7.70;;;5.97;;
61915;SDS011;47868;51.326;6.550;2023-06-14T03:45:37;10.35;;;5.68;;
61915;SDS011;47868;51.326;6.550;2023-06-14T03:48:03;6.10;;;5.53;;
61915;SDS011;47868;51.326;6.550;2023-06-14T03:50:31;9.65;;;5.78;;
61915;SDS011;47868;51.326;6.550;2023-06-14T03:52:57;8.85;;;5.72;;
61915;SDS011;47868;51.326;6.550;2023-06-14T03:55:23;6.68;;;5.90;;
61915;SDS011;47868;51.326;6.550;2023-06-14T03:57:52;8.00;;;5.78;;
61915;SDS011;47868;51.326;6.550;2023-06-14T04:00:18;7.45;;;5.80;;
61915;SDS011;47868;51.326;6.550;2023-06-14T04:02:44;9.30;;;5.65;;
61915;SDS011;47868;51.326;6.550;2023-06-14T04:05:11;6.53;;;5.20;;
61915;SDS011;47868;51.326;6.550;2023-06-14T04:07:37;7.72;;;5.47;;
61915;SDS011;47868;51.326;6.550;2023-06-14T04:10:05;7.35;;;5.97;;
61915;SDS011;47868;51.326;6.550;2023-06-14T04:12:31;10.75;;;5.88;;
61915;SDS011;47868;51.326;6.550;2023-06-14T04:14:57;8.73;;;5.70;;
61915;SDS011;47868;51.326;6.550;2023-06-14T04:17:23;8.77;;;5.28;;
61915;SDS011;47868;51.326;6.550;2023-06-14T04:19:49;8.73;;;5.22;;
61915;SDS011;47868;51.326;6.550;2023-06-14T04:22:15;11.38;;;5.88;;
61915;SDS011;47868;51.326;6.550;2023-06-14T04:24:41;6.80;;;5.40;;
61915;SDS011;47868;51.326;6.550;2023-06-14T04:27:09;7.03;;;5.03;;
61915;SDS011;47868;51.326;6.550;2023-06-14T04:29:35;10.40;;;5.78;;
61915;SDS011;47868;51.326;6.550;2023-06-14T04:32:01;8.63;;;5.32;;
61915;SDS011;47868;51.326;6.550;2023-06-14T04:34:27;7.75;;;5.90;;
61915;SDS011;47868;51.326;6.550;2023-06-14T04:36:59;6.25;;;5.47;;
61915;SDS011;47868;51.326;6.550;2023-06-14T04:39:26;9.85;;;5.60;;
61915;SDS011;47868;51.326;6.550;2023-06-14T04:41:53;7.55;;;5.55;;
61915;SDS011;47868;51.326;6.550;2023-06-14T04:44:22;9.30;;;5.15;;
61915;SDS011;47868;51.326;6.550;2023-06-14T04:46:55;10.88;;;5.88;;
61915;SDS011;47868;51.326;6.550;2023-06-14T04:49:21;7.00;;;5.13;;
61915;SDS011;47868;51.326;6.550;2023-06-14T04:51:48;9.85;;;5.85;;
61915;SDS011;47868;51.326;6.550;2023-06-14T04:54:22;10.80;;;5.68;;
61915;SDS011;47868;51.326;6.550;2023-06-14T04:56:49;12.68;;;5.30;;
61915;SDS011;47868;51.326;6.550;2023-06-14T04:59:15;6.25;;;5.18;;
61915;SDS011;47868;51.326;6.550;2023-06-14T05:01:42;13.60;;;5.57;;
61915;SDS011;47868;51.326;6.550;2023-06-14T05:04:13;8.98;;;5.90;;
61915;SDS011;47868;51.326;6.550;2023-06-14T05:06:40;8.85;;;5.90;;
61915;SDS011;47868;51.326;6.550;2023-06-14T05:09:06;9.95;;;5.90;;
61915;SDS011;47868;51.326;6.550;2023-06-14T05:11:32;11.43;;;5.85;;
61915;SDS011;47868;51.326;6.550;2023-06-14T05:13:58;12.20;;;6.65;;
61915;SDS011;47868;51.326;6.550;2023-06-14T05:16:24;12.88;;;6.28;;
61915;SDS011;47868;51.326;6.550;2023-06-14T05:18:52;12.93;;;6.70;;
61915;SDS011;47868;51.326;6.550;2023-06-14T05:21:18;11.68;;;5.97;;
61915;SDS011;47868;51.326;6.550;2023-06-14T05:23:44;15.75;;;6.60;;
61915;SDS011;47868;51.326;6.550;2023-06-14T05:26:10;21.00;;;6.88;;
61915;SDS011;47868;51.326;6.550;2023-06-14T05:28:37;9.73;;;6.32;;
61915;SDS011;47868;51.326;6.550;2023-06-14T05:31:03;6.95;;;4.88;;
61915;SDS011;47868;51.326;6.550;2023-06-14T05:33:29;11.00;;;4.72;;
61915;SDS011;47868;51.326;6.550;2023-06-14T05:35:55;8.77;;;4.82;;
61915;SDS011;47868;51.326;6.550;2023-06-14T05:38:21;9.57;;;4.63;;
61915;SDS011;47868;51.326;6.550;2023-06-14T05:40:47;5.13;;;4.50;;
61915;SDS011;47868;51.326;6.550;2023-06-14T05:43:13;5.28;;;4.28;;
61915;SDS011;47868;51.326;6.550;2023-06-14T05:45:39;6.97;;;4.28;;
61915;SDS011;47868;51.326;6.550;2023-06-14T05:48:05;6.38;;;4.60;;
61915;SDS011;47868;51.326;6.550;2023-06-14T05:50:31;8.43;;;5.22;;
61915;SDS011;47868;51.326;6.550;2023-06-14T05:52:57;11.63;;;4.20;;
61915;SDS011;47868;51.326;6.550;2023-06-14T05:55:23;8.95;;;4.50;;
61915;SDS011;47868;51.326;6.550;2023-06-14T05:57:50;7.28;;;4.45;;
61915;SDS011;47868;51.326;6.550;2023-06-14T06:00:16;12.00;;;4.50;;
61915;SDS011;47868;51.326;6.550;2023-06-14T06:02:43;6.43;;;4.50;;
61915;SDS011;47868;51.326;6.550;2023-06-14T06:05:10;8.90;;;4.75;;
61915;SDS011;47868;51.326;6.550;2023-06-14T06:07:36;10.15;;;4.50;;
61915;SDS011;47868;51.326;6.550;2023-06-14T06:10:03;10.27;;;4.38;;
61915;SDS011;47868;51.326;6.550;2023-06-14T06:12:29;9.35;;;4.82;;
61915;SDS011;47868;51.326;6.550;2023-06-14T06:14:56;9.93;;;4.07;;
61915;SDS011;47868;51.326;6.550;2023-06-14T06:17:22;5.97;;;3.60;;
61915;SDS011;47868;51.326;6.550;2023-06-14T06:19:48;4.63;;;4.22;;
61915;SDS011;47868;51.326;6.550;2023-06-14T06:22:14;5.03;;;3.95;;
61915;SDS011;47868;51.326;6.550;2023-06-14T06:24:40;9.65;;;4.15;;
61915;SDS011;47868;51.326;6.550;2023-06-14T06:27:06;6.28;;;3.75;;
61915;SDS011;47868;51.326;6.550;2023-06-14T06:29:33;6.72;;;3.92;;
61915;SDS011;47868;51.326;6.550;2023-06-14T06:31:59;10.27;;;3.88;;
61915;SDS011;47868;51.326;6.550;2023-06-14T06:34:26;4.07;;;3.67;;
61915;SDS011;47868;51.326;6.550;2023-06-14T06:36:52;5.78;;;3.78;;
61915;SDS011;47868;51.326;6.550;2023-06-14T06:39:18;4.93;;;3.60;;
61915;SDS011;47868;51.326;6.550;2023-06-14T06:41:44;7.07;;;4.07;;
61915;SDS011;47868;51.326;6.550;2023-06-14T06:44:10;5.88;;;3.67;;
61915;SDS011;47868;51.326;6.550;2023-06-14T06:46:37;6.32;;;3.70;;
61915;SDS011;47868;51.326;6.550;2023-06-14T06:49:07;16.80;;;3.67;;
61915;SDS011;47868;51.326;6.550;2023-06-14T06:51:34;9.05;;;3.67;;
61915;SDS011;47868;51.326;6.550;2023-06-14T06:54:02;7.00;;;3.40;;
61915;SDS011;47868;51.326;6.550;2023-06-14T06:56:28;12.05;;;3.25;;
61915;SDS011;47868;51.326;6.550;2023-06-14T06:58:54;10.30;;;3.33;;
61915;SDS011;47868;51.326;6.550;2023-06-14T07:01:20;11.13;;;3.45;;
61915;SDS011;47868;51.326;6.550;2023-06-14T07:03:46;4.28;;;3.22;;
61915;SDS011;47868;51.326;6.550;2023-06-14T07:06:12;5.32;;;3.25;;
61915;SDS011;47868;51.326;6.550;2023-06-14T07:08:39;4.55;;;3.33;;
61915;SDS011;47868;51.326;6.550;2023-06-14T07:11:05;4.78;;;2.92;;
61915;SDS011;47868;51.326;6.550;2023-06-14T07:13:32;5.90;;;2.63;;
61915;SDS011;47868;51.326;6.550;2023-06-14T07:15:58;4.45;;;3.08;;
61915;SDS011;47868;51.326;6.550;2023-06-14T07:18:30;3.22;;;2.25;;
61915;SDS011;47868;51.326;6.550;2023-06-14T07:20:56;4.65;;;2.92;;
61915;SDS011;47868;51.326;6.550;2023-06-14T07:23:22;6.10;;;2.47;;
61915;SDS011;47868;51.326;6.550;2023-06-14T07:25:48;4.55;;;2.63;;
61915;SDS011;47868;51.326;6.550;2023-06-14T07:28:15;6.82;;;3.08;;
61915;SDS011;47868;51.326;6.550;2023-06-14T07:30:41;5.53;;;3.00;;
61915;SDS011;47868;51.326;6.550;2023-06-14T07:33:07;5.38;;;2.70;;
61915;SDS011;47868;51.326;6.550;2023-06-14T07:35:33;5.00;;;3.13;;
61915;SDS011;47868;51.326;6.550;2023-06-14T07:37:59;7.00;;;2.67;;
61915;SDS011;47868;51.326;6.550;2023-06-14T07:40:25;7.00;;;2.53;;
61915;SDS011;47868;51.326;6.550;2023-06-14T07:42:52;2.90;;;2.60;;
61915;SDS011;47868;51.326;6.550;2023-06-14T07:45:19;8.30;;;2.50;;
61915;SDS011;47868;51.326;6.550;2023-06-14T07:47:45;6.82;;;2.50;;
61915;SDS011;47868;51.326;6.550;2023-06-14T07:50:11;6.03;;;2.28;;
61915;SDS011;47868;51.326;6.550;2023-06-14T07:52:38;4.88;;;2.10;;
61915;SDS011;47868;51.326;6.550;2023-06-14T07:55:04;5.03;;;2.40;;
61915;SDS011;47868;51.326;6.550;2023-06-14T07:57:31;3.58;;;1.88;;
61915;SDS011;47868;51.326;6.550;2023-06-14T07:59:57;5.40;;;2.47;;
61915;SDS011;47868;51.326;6.550;2023-06-14T08:02:23;2.40;;;2.10;;
61915;SDS011;47868;51.326;6.550;2023-06-14T08:04:49;2.08;;;1.92;;
61915;SDS011;47868;51.326;6.550;2023-06-14T08:07:15;9.93;;;2.20;;
61915;SDS011;47868;51.326;6.550;2023-06-14T08:09:41;2.03;;;1.83;;
61915;SDS011;47868;51.326;6.550;2023-06-14T08:12:07;2.67;;;2.30;;
61915;SDS011;47868;51.326;6.550;2023-06-14T08:14:37;5.55;;;2.22;;
61915;SDS011;47868;51.326;6.550;2023-06-14T08:17:03;2.30;;;1.77;;
61915;SDS011;47868;51.326;6.550;2023-06-14T08:19:29;5.60;;;2.40;;
61915;SDS011;47868;51.326;6.550;2023-06-14T08:21:56;4.38;;;2.22;;
61915;SDS011;47868;51.326;6.550;2023-06-14T08:24:22;2.92;;;2.55;;
61915;SDS011;47868;51.326;6.550;2023-06-14T08:26:53;3.88;;;2.22;;
61915;SDS011;47868;51.326;6.550;2023-06-14T08:29:19;5.15;;;2.17;;
61915;SDS011;47868;51.326;6.550;2023-06-14T08:31:46;2.92;;;2.30;;
61915;SDS011;47868;51.326;6.550;2023-06-14T08:34:12;3.55;;;2.45;;
61915;SDS011;47868;51.326;6.550;2023-06-14T08:36:38;4.07;;;2.70;;
61915;SDS011;47868;51.326;6.550;2023-06-14T08:39:06;6.07;;;2.45;;
61915;SDS011;47868;51.326;6.550;2023-06-14T08:41:33;7.00;;;2.20;;
61915;SDS011;47868;51.326;6.550;2023-06-14T08:44:00;2.17;;;1.98;;
61915;SDS011;47868;51.326;6.550;2023-06-14T08:46:26;3.10;;;1.85;;
61915;SDS011;47868;51.326;6.550;2023-06-14T08:48:55;4.72;;;2.20;;
61915;SDS011;47868;51.326;6.550;2023-06-14T08:51:25;3.67;;;2.20;;
61915;SDS011;47868;51.326;6.550;2023-06-14T08:53:53;5.22;;;2.42;;
61915;SDS011;47868;51.326;6.550;2023-06-14T08:56:22;2.22;;;2.03;;
61915;SDS011;47868;51.326;6.550;2023-06-14T08:58:51;2.58;;;2.30;;
61915;SDS011;47868;51.326;6.550;2023-06-14T09:01:17;4.35;;;2.63;;
61915;SDS011;47868;51.326;6.550;2023-06-14T09:03:44;6.22;;;2.20;;
61915;SDS011;47868;51.326;6.550;2023-06-14T09:06:10;6.63;;;2.20;;
61915;SDS011;47868;51.326;6.550;2023-06-14T09:08:42;3.10;;;2.20;;
61915;SDS011;47868;51.326;6.550;2023-06-14T09:11:12;2.88;;;2.10;;
61915;SDS011;47868;51.326;6.550;2023-06-14T09:13:39;7.35;;;2.10;;
61915;SDS011;47868;51.326;6.550;2023-06-14T09:16:06;4.03;;;2.38;;
61915;SDS011;47868;51.326;6.550;2023-06-14T09:18:36;4.75;;;2.38;;
61915;SDS011;47868;51.326;6.550;2023-06-14T09:21:02;9.10;;;2.85;;
61915;SDS011;47868;51.326;6.550;2023-06-14T09:23:28;4.95;;;2.28;;
61915;SDS011;47868;51.326;6.550;2023-06-14T09:25:54;2.90;;;2.35;;
61915;SDS011;47868;51.326;6.550;2023-06-14T09:28:20;5.97;;;2.35;;
61915;SDS011;47868;51.326;6.550;2023-06-14T09:30:52;4.32;;;2.42;;
61915;SDS011;47868;51.326;6.550;2023-06-14T09:33:18;4.05;;;2.40;;
61915;SDS011;47868;51.326;6.550;2023-06-14T09:35:46;4.40;;;2.53;;
61915;SDS011;47868;51.326;6.550;2023-06-14T09:38:12;10.93;;;2.30;;
61915;SDS011;47868;51.326;6.550;2023-06-14T09:40:38;2.88;;;2.00;;
61915;SDS011;47868;51.326;6.550;2023-06-14T09:43:05;9.10;;;2.38;;
61915;SDS011;47868;51.326;6.550;2023-06-14T09:45:35;4.30;;;2.30;;
61915;SDS011;47868;51.326;6.550;2023-06-14T09:48:01;8.52;;;2.28;;
61915;SDS011;47868;51.326;6.550;2023-06-14T09:50:27;3.78;;;2.03;;
61915;SDS011;47868;51.326;6.550;2023-06-14T09:52:54;8.30;;;2.35;;
61915;SDS011;47868;51.326;6.550;2023-06-14T09:55:21;4.07;;;2.33;;
61915;SDS011;47868;51.326;6.550;2023-06-14T09:57:47;4.15;;;2.42;;
61915;SDS011;47868;51.326;6.550;2023-06-14T10:00:15;3.67;;;2.22;;
61915;SDS011;47868;51.326;6.550;2023-06-14T10:02:41;3.22;;;2.10;;
61915;SDS011;47868;51.326;6.550;2023-06-14T10:05:12;4.53;;;2.45;;
61915;SDS011;47868;51.326;6.550;2023-06-14T10:08:00;6.72;;;2.60;;
61915;SDS011;47868;51.326;6.550;2023-06-14T10:10:30;5.03;;;2.67;;
61915;SDS011;47868;51.326;6.550;2023-06-14T10:12:56;6.13;;;2.40;;
61915;SDS011;47868;51.326;6.550;2023-06-14T10:15:37;6.75;;;2.42;;
61915;SDS011;47868;51.326;6.550;2023-06-14T10:20:35;5.20;;;2.40;;
61915;SDS011;47868;51.326;6.550;2023-06-14T10:23:21;5.32;;;2.10;;
61915;SDS011;47868;51.326;6.550;2023-06-14T10:25:56;3.03;;;2.20;;
61915;SDS011;47868;51.326;6.550;2023-06-14T10:28:22;2.60;;;2.28;;
61915;SDS011;47868;51.326;6.550;2023-06-14T10:33:35;4.03;;;1.77;;
61915;SDS011;47868;51.326;6.550;2023-06-14T10:36:25;3.85;;;1.67;;
61915;SDS011;47868;51.326;6.550;2023-06-14T10:39:04;5.80;;;1.98;;
61915;SDS011;47868;51.326;6.550;2023-06-14T10:41:31;2.45;;;1.70;;
61915;SDS011;47868;51.326;6.550;2023-06-14T10:46:49;7.10;;;1.80;;
61915;SDS011;47868;51.326;6.550;2023-06-14T10:52:07;4.68;;;2.03;;
61915;SDS011;47868;51.326;6.550;2023-06-14T10:54:41;1.70;;;1.60;;
61915;SDS011;47868;51.326;6.550;2023-06-14T10:57:20;6.18;;;2.10;;
61915;SDS011;47868;51.326;6.550;2023-06-14T10:59:46;3.67;;;1.90;;
61915;SDS011;47868;51.326;6.550;2023-06-14T11:04:48;3.47;;;2.00;;
61915;SDS011;47868;51.326;6.550;2023-06-14T11:10:04;1.88;;;1.77;;
61915;SDS011;47868;51.326;6.550;2023-06-14T11:12:32;4.55;;;1.90;;
61915;SDS011;47868;51.326;6.550;2023-06-14T11:15:00;4.80;;;1.63;;
61915;SDS011;47868;51.326;6.550;2023-06-14T11:17:27;2.28;;;1.67;;
61915;SDS011;47868;51.326;6.550;2023-06-14T11:20:11;2.67;;;1.58;;
61915;SDS011;47868;51.326;6.550;2023-06-14T11:22:43;3.17;;;1.65;;
61915;SDS011;47868;51.326;6.550;2023-06-14T11:25:10;6.13;;;1.83;;
61915;SDS011;47868;51.326;6.550;2023-06-14T11:27:36;6.68;;;1.65;;
61915;SDS011;47868;51.326;6.550;2023-06-14T11:30:03;7.72;;;1.65;;
61915;SDS011;47868;51.326;6.550;2023-06-14T11:32:31;2.28;;;1.58;;
61915;SDS011;47868;51.326;6.550;2023-06-14T11:34:57;3.85;;;1.40;;
61915;SDS011;47868;51.326;6.550;2023-06-14T11:37:25;2.63;;;1.30;;
61915;SDS011;47868;51.326;6.550;2023-06-14T11:39:51;3.85;;;1.42;;
61915;SDS011;47868;51.326;6.550;2023-06-14T11:42:17;3.58;;;1.70;;
61915;SDS011;47868;51.326;6.550;2023-06-14T11:44:46;3.22;;;1.30;;
61915;SDS011;47868;51.326;6.550;2023-06-14T11:47:12;1.73;;;1.42;;
61915;SDS011;47868;51.326;6.550;2023-06-14T11:49:38;4.22;;;1.63;;
61915;SDS011;47868;51.326;6.550;2023-06-14T11:52:04;1.70;;;1.60;;
61915;SDS011;47868;51.326;6.550;2023-06-14T11:54:32;5.07;;;1.60;;
61915;SDS011;47868;51.326;6.550;2023-06-14T11:56:58;3.28;;;1.50;;
61915;SDS011;47868;51.326;6.550;2023-06-14T11:59:24;2.40;;;1.52;;
61915;SDS011;47868;51.326;6.550;2023-06-14T12:01:52;2.00;;;1.60;;
61915;SDS011;47868;51.326;6.550;2023-06-14T12:04:28;7.65;;;1.52;;
61915;SDS011;47868;51.326;6.550;2023-06-14T12:06:54;2.72;;;1.40;;
61915;SDS011;47868;51.326;6.550;2023-06-14T12:09:25;5.53;;;1.33;;
61915;SDS011;47868;51.326;6.550;2023-06-14T12:11:59;5.55;;;1.50;;
61915;SDS011;47868;51.326;6.550;2023-06-14T12:14:29;3.58;;;1.60;;
61915;SDS011;47868;51.326;6.550;2023-06-14T12:17:05;3.25;;;1.40;;
61915;SDS011;47868;51.326;6.550;2023-06-14T12:19:31;5.95;;;1.60;;
61915;SDS011;47868;51.326;6.550;2023-06-14T12:22:00;1.98;;;1.30;;
61915;SDS011;47868;51.326;6.550;2023-06-14T12:24:29;2.70;;;1.40;;
61915;SDS011;47868;51.326;6.550;2023-06-14T12:26:58;4.63;;;1.30;;
61915;SDS011;47868;51.326;6.550;2023-06-14T12:29:25;1.48;;;1.38;;
61915;SDS011;47868;51.326;6.550;2023-06-14T12:31:51;4.53;;;1.45;;
61915;SDS011;47868;51.326;6.550;2023-06-14T12:34:19;1.92;;;1.23;;
61915;SDS011;47868;51.326;6.550;2023-06-14T12:36:45;4.55;;;1.48;;
61915;SDS011;47868;51.326;6.550;2023-06-14T12:39:12;1.92;;;1.50;;
61915;SDS011;47868;51.326;6.550;2023-06-14T12:41:38;6.72;;;1.55;;
61915;SDS011;47868;51.326;6.550;2023-06-14T12:44:06;10.40;;;1.70;;
61915;SDS011;47868;51.326;6.550;2023-06-14T12:46:33;2.47;;;1.60;;
61915;SDS011;47868;51.326;6.550;2023-06-14T12:48:59;6.72;;;1.67;;
61915;SDS011;47868;51.326;6.550;2023-06-14T12:51:26;2.25;;;1.48;;
61915;SDS011;47868;51.326;6.550;2023-06-14T12:53:52;7.60;;;1.58;;
61915;SDS011;47868;51.326;6.550;2023-06-14T12:56:18;6.10;;;1.95;;
61915;SDS011;47868;51.326;6.550;2023-06-14T12:58:44;3.55;;;1.58;;
61915;SDS011;47868;51.326;6.550;2023-06-14T13:01:10;4.82;;;1.70;;
61915;SDS011;47868;51.326;6.550;2023-06-14T13:03:36;2.33;;;1.70;;
61915;SDS011;47868;51.326;6.550;2023-06-14T13:06:02;6.95;;;1.60;;
61915;SDS011;47868;51.326;6.550;2023-06-14T13:08:29;3.72;;;1.63;;
61915;SDS011;47868;51.326;6.550;2023-06-14T13:10:55;5.20;;;1.70;;
61915;SDS011;47868;51.326;6.550;2023-06-14T13:13:21;7.97;;;1.70;;
61915;SDS011;47868;51.326;6.550;2023-06-14T13:15:47;5.35;;;1.60;;
61915;SDS011;47868;51.326;6.550;2023-06-14T13:18:14;6.22;;;2.03;;
61915;SDS011;47868;51.326;6.550;2023-06-14T13:20:41;2.85;;;1.77;;
61915;SDS011;47868;51.326;6.550;2023-06-14T13:23:07;6.03;;;2.08;;
61915;SDS011;47868;51.326;6.550;2023-06-14T13:25:34;5.70;;;1.70;;
61915;SDS011;47868;51.326;6.550;2023-06-14T13:28:00;2.75;;;1.70;;
61915;SDS011;47868;51.326;6.550;2023-06-14T13:30:26;5.60;;;1.80;;
61915;SDS011;47868;51.326;6.550;2023-06-14T13:32:52;2.50;;;1.63;;
61915;SDS011;47868;51.326;6.550;2023-06-14T13:35:19;2.55;;;1.63;;
61915;SDS011;47868;51.326;6.550;2023-06-14T13:37:45;3.05;;;1.35;;
61915;SDS011;47868;51.326;6.550;2023-06-14T13:40:11;4.20;;;1.75;;
61915;SDS011;47868;51.326;6.550;2023-06-14T13:42:37;1.98;;;1.88;;
61915;SDS011;47868;51.326;6.550;2023-06-14T13:45:03;6.07;;;1.80;;
61915;SDS011;47868;51.326;6.550;2023-06-14T13:47:30;4.60;;;2.45;;
61915;SDS011;47868;51.326;6.550;2023-06-14T13:49:56;4.65;;;1.70;;
61915;SDS011;47868;51.326;6.550;2023-06-14T13:52:23;3.38;;;2.13;;
61915;SDS011;47868;51.326;6.550;2023-06-14T13:54:49;3.42;;;1.50;;
61915;SDS011;47868;51.326;6.550;2023-06-14T13:57:18;2.13;;;1.60;;
61915;SDS011;47868;51.326;6.550;2023-06-14T13:59:44;3.28;;;1.60;;
61915;SDS011;47868;51.326;6.550;2023-06-14T14:02:10;3.20;;;1.67;;
61915;SDS011;47868;51.326;6.550;2023-06-14T14:04:36;7.35;;;2.10;;
61915;SDS011;47868;51.326;6.550;2023-06-14T14:07:03;7.43;;;1.80;;
61915;SDS011;47868;51.326;6.550;2023-06-14T14:09:30;5.32;;;2.13;;
61915;SDS011;47868;51.326;6.550;2023-06-14T14:11:57;4.82;;;1.60;;
61915;SDS011;47868;51.326;6.550;2023-06-14T14:14:23;3.85;;;1.80;;
61915;SDS011;47868;51.326;6.550;2023-06-14T14:16:49;3.72;;;1.60;;
61915;SDS011;47868;51.326;6.550;2023-06-14T14:19:19;2.47;;;1.85;;
61915;SDS011;47868;51.326;6.550;2023-06-14T14:21:46;5.35;;;2.20;;
61915;SDS011;47868;51.326;6.550;2023-06-14T14:24:12;3.67;;;2.13;;
61915;SDS011;47868;51.326;6.550;2023-06-14T14:26:38;4.38;;;2.30;;
61915;SDS011;47868;51.326;6.550;2023-06-14T14:29:04;2.35;;;2.10;;
61915;SDS011;47868;51.326;6.550;2023-06-14T14:31:31;3.53;;;2.00;;
61915;SDS011;47868;51.326;6.550;2023-06-14T14:33:57;9.77;;;2.40;;
61915;SDS011;47868;51.326;6.550;2023-06-14T14:36:23;2.53;;;1.95;;
61915;SDS011;47868;51.326;6.550;2023-06-14T14:38:49;4.43;;;1.90;;
61915;SDS011;47868;51.326;6.550;2023-06-14T14:41:16;3.38;;;1.85;;
61915;SDS011;47868;51.326;6.550;2023-06-14T14:43:43;4.65;;;2.20;;
61915;SDS011;47868;51.326;6.550;2023-06-14T14:46:09;3.60;;;2.20;;
61915;SDS011;47868;51.326;6.550;2023-06-14T14:48:35;4.32;;;2.20;;
61915;SDS011;47868;51.326;6.550;2023-06-14T14:51:01;6.53;;;2.30;;
61915;SDS011;47868;51.326;6.550;2023-06-14T14:53:28;4.90;;;2.10;;
61915;SDS011;47868;51.326;6.550;2023-06-14T14:55:54;2.05;;;1.92;;
61915;SDS011;47868;51.326;6.550;2023-06-14T14:58:20;8.00;;;2.05;;
61915;SDS011;47868;51.326;6.550;2023-06-14T15:00:46;4.20;;;2.70;;